College Station, Texas
Current Conditions -  °F | °C
As of 7:53 AM on Monday 20 Oct 2014 (Local Time) from KCLL Reporting Station
Clear Clear  
Wind Chill: 60°   Ceiling: Unl
Heat Index: 60°   Visibility: 10mi
Dew Point: 56°   Wind: 5mph
Humidity: 86%   Direction: 50°NE
Pressure: 30.06"   Gusts: NA
Location:  30.62°N, 96.32°W
Report Text: KCLL 201253Z 05004KT 10SM CLR 16/13 A3006 RMK AO2 SLP175 T01560133
Loading
Personal Weather Stations






























Interactive Weather Map
Tropical Storm Tracking
New forecast layout! Learn more

10-Day Weather Forecast

Advertisements
Track Severe Weather on mobile